Time;durP1;ratioP1;P1;durP2;ratioP2;P2;SDS_P1;SDS_P2;PMS_P1;PMS_P2;Temp;Humidity;BMP_temperature;BMP_pressure;BME280_temperature;BME280_humidity;BME280_pressure;Samples;Min_cycle;Max_cycle;Signal;HPM_P1;HPM_P2
2022/08/20 00:01:39;;;;;;;9.25;6.38;;;18.90;99.90;;;;;;5017617;28;20124;-67
2022/08/20 00:04:05;;;;;;;9.27;6.55;;;19.20;99.90;;;;;;5017628;28;20053;-67
2022/08/20 00:06:30;;;;;;;10.43;6.88;;;19.00;99.90;;;;;;5035593;28;20073;-67
2022/08/20 00:08:56;;;;;;;7.55;6.43;;;19.10;99.90;;;;;;5017731;28;20109;-66
2022/08/20 00:11:24;;;;;;;10.55;6.95;;;19.10;99.90;;;;;;5017570;28;20052;-67
2022/08/20 00:13:56;;;;;;;11.30;7.40;;;18.90;99.90;;;;;;5035027;28;20056;-67
2022/08/20 00:16:25;;;;;;;11.40;7.60;;;19.10;99.90;;;;;;5017550;28;20049;-67
2022/08/20 00:18:52;;;;;;;10.25;6.93;;;19.00;99.90;;;;;;5017503;28;20063;-67
2022/08/20 00:21:19;;;;;;;9.98;6.72;;;19.10;99.90;;;;;;5017364;28;20120;-67
2022/08/20 00:23:47;;;;;;;14.93;8.02;;;19.00;99.90;;;;;;5017203;28;20084;-67
2022/08/20 00:26:13;;;;;;;10.85;7.22;;;18.80;99.90;;;;;;5034794;28;20091;-67
2022/08/20 00:28:39;;;;;;;11.70;6.65;;;19.00;99.90;;;;;;5035254;28;20099;-67
2022/08/20 00:31:06;;;;;;;11.60;6.75;;;18.80;99.90;;;;;;5034982;28;20480;-67
2022/08/20 00:33:32;;;;;;;16.50;8.88;;;20.50;99.90;;;;;;5017254;28;20033;-67
2022/08/20 00:36:05;;;;;;;12.55;7.55;;;19.00;99.90;;;;;;5034823;28;20115;-67
2022/08/20 00:38:32;;;;;;;10.10;6.32;;;19.00;99.90;;;;;;5016318;28;20045;-66
2022/08/20 00:40:58;;;;;;;9.45;6.95;;;18.90;99.90;;;;;;5016505;28;20057;-65
2022/08/20 00:43:43;;;;;;;11.50;7.65;;;18.80;99.90;;;;;;5034971;28;20068;-66
2022/08/20 00:46:19;;;;;;;11.20;7.45;;;19.00;99.90;;;;;;5034694;28;20033;-65
2022/08/20 00:48:49;;;;;;;14.43;6.80;;;18.70;99.90;;;;;;5034597;28;20049;-65
2022/08/20 00:51:27;;;;;;;11.48;7.05;;;18.80;99.90;;;;;;5034104;28;20041;-66
2022/08/20 00:54:09;;;;;;;9.20;7.25;;;18.70;99.90;;;;;;5016863;28;20041;-65
2022/08/20 00:56:36;;;;;;;20.55;8.20;;;18.90;99.90;;;;;;5016709;28;20120;-65
2022/08/20 00:59:10;;;;;;;13.13;7.65;;;18.60;99.90;;;;;;5034422;28;20091;-66
2022/08/20 01:01:38;;;;;;;12.60;7.18;;;18.80;99.90;;;;;;5034244;28;20091;-66
2022/08/20 01:04:04;;;;;;;12.00;7.47;;;18.70;99.90;;;;;;5020537;28;20144;-65
2022/08/20 01:06:30;;;;;;;11.35;7.35;;;18.70;99.90;;;;;;5034372;28;20045;-65
2022/08/20 01:08:57;;;;;;;13.82;7.55;;;18.80;99.90;;;;;;5034354;28;20116;-65
2022/08/20 01:11:32;;;;;;;13.30;7.53;;;18.60;99.90;;;;;;5034126;28;20124;-65
2022/08/20 01:13:59;;;;;;;16.15;7.13;;;18.60;99.90;;;;;;5034070;28;20041;-65
2022/08/20 01:16:30;;;;;;;9.88;6.18;;;18.70;99.90;;;;;;5033884;28;20048;-65
2022/08/20 01:18:57;;;;;;;15.85;8.18;;;18.60;99.90;;;;;;5034227;28;20038;-65
2022/08/20 01:21:26;;;;;;;12.75;6.93;;;18.80;99.90;;;;;;5034010;28;20083;-65
2022/08/20 01:23:52;;;;;;;13.63;6.90;;;18.60;99.90;;;;;;5033937;28;20038;-66
2022/08/20 01:26:25;;;;;;;11.85;5.78;;;18.70;99.90;;;;;;5015877;28;20048;-66
2022/08/20 01:29:00;;;;;;;15.93;7.45;;;18.50;99.90;;;;;;5015995;28;20519;-66
2022/08/20 01:31:34;;;;;;;16.55;6.85;;;18.60;99.90;;;;;;5033927;28;20068;-66
2022/08/20 01:34:01;;;;;;;;;;;18.70;99.90;;;;;;5034403;28;20064;-65
2022/08/20 01:36:35;;;;;;;15.30;6.50;;;18.50;99.90;;;;;;5033681;28;19924;-65
2022/08/20 01:39:02;;;;;;;14.52;6.97;;;18.80;99.90;;;;;;5015785;28;20175;-68
2022/08/20 01:42:14;;;;;;;11.05;6.00;;;18.80;99.90;;;;;;5015700;28;20045;-67
2022/08/20 01:44:43;;;;;;;15.05;6.15;;;18.70;99.90;;;;;;5007667;28;20556;-67
2022/08/20 01:47:21;;;;;;;13.18;6.80;;;18.60;99.90;;;;;;5015844;28;20069;-67
2022/08/20 01:49:50;;;;;;;24.38;7.28;;;18.60;99.90;;;;;;5032371;28;20037;-67
2022/08/20 01:52:50;;;;;;;12.55;5.88;;;18.50;99.90;;;;;;5031447;28;20451;-67
2022/08/20 01:55:16;;;;;;;12.90;5.57;;;18.40;99.90;;;;;;5033319;28;20037;-67
2022/08/20 01:57:42;;;;;;;14.48;6.30;;;18.40;99.90;;;;;;5033171;28;20095;-67
2022/08/20 02:00:12;;;;;;;11.02;6.28;;;18.60;99.90;;;;;;5015240;28;20044;-67
2022/08/20 02:02:37;;;;;;;10.70;6.22;;;18.40;99.90;;;;;;5015434;28;20562;-67
2022/08/20 02:05:03;;;;;;;14.10;6.10;;;18.60;99.90;;;;;;5015499;28;20046;-67
2022/08/20 02:07:31;;;;;;;14.57;6.55;;;18.50;99.90;;;;;;5033120;28;20049;-67
2022/08/20 02:09:57;;;;;;;15.13;5.60;;;18.40;99.90;;;;;;5033002;28;20041;-67
2022/08/20 02:12:23;;;;;;;10.55;6.43;;;18.40;99.90;;;;;;5015423;28;20130;-67
2022/08/20 02:14:52;;;;;;;11.65;5.85;;;18.50;99.90;;;;;;5032972;28;20076;-67
2022/08/20 02:17:21;;;;;;;16.05;6.28;;;18.60;99.90;;;;;;5015328;28;20106;-67
2022/08/20 02:19:59;;;;;;;11.32;6.40;;;18.60;99.90;;;;;;5033194;28;20073;-67
2022/08/20 02:22:24;;;;;;;11.93;6.65;;;18.30;99.90;;;;;;5015107;28;20049;-67
2022/08/20 02:24:50;;;;;;;11.13;5.57;;;18.50;99.90;;;;;;5014841;28;20045;-67
2022/08/20 02:27:17;;;;;;;16.35;6.70;;;17.90;99.90;;;;;;5015020;28;20069;-67
2022/08/20 02:29:43;;;;;;;13.23;5.55;;;18.30;99.90;;;;;;5032570;28;20037;-67
2022/08/20 02:32:10;;;;;;;10.52;6.20;;;18.30;99.90;;;;;;5032898;28;20030;-67
2022/08/20 02:34:36;;;;;;;13.30;5.47;;;18.10;99.90;;;;;;5014947;28;20056;-67
2022/08/20 02:37:03;;;;;;;12.80;5.70;;;18.10;99.90;;;;;;5032613;28;20033;-67
2022/08/20 02:39:29;;;;;;;11.77;5.22;;;18.20;99.90;;;;;;5032371;28;20045;-67
2022/08/20 02:41:54;;;;;;;11.98;5.60;;;18.00;99.90;;;;;;5032451;28;20040;-67
2022/08/20 02:44:20;;;;;;;10.32;6.05;;;18.10;99.90;;;;;;5014676;28;20045;-67
2022/08/20 02:46:48;;;;;;;10.38;5.53;;;17.80;99.90;;;;;;5007229;28;20042;-67
2022/08/20 02:49:18;;;;;;;11.48;5.55;;;18.10;99.90;;;;;;5015001;28;20115;-67
2022/08/20 02:51:44;;;;;;;8.38;6.10;;;18.00;99.90;;;;;;5014307;28;20487;-67
2022/08/20 02:54:10;;;;;;;9.30;5.90;;;18.00;99.90;;;;;;5032381;28;20060;-67
2022/08/20 02:56:36;;;;;;;8.73;4.72;;;18.00;99.90;;;;;;5014741;28;20116;-67
2022/08/20 02:59:02;;;;;;;11.25;5.43;;;18.00;99.90;;;;;;5014752;28;20125;-67
2022/08/20 03:01:29;;;;;;;11.73;5.90;;;17.80;99.90;;;;;;5032002;28;20480;-67
2022/08/20 03:03:57;;;;;;;11.32;6.05;;;17.90;99.90;;;;;;5032037;28;20050;-67
2022/08/20 03:06:24;;;;;;;9.07;4.88;;;17.80;99.90;;;;;;5014430;28;20042;-67
2022/08/20 03:08:50;;;;;;;10.85;5.45;;;17.80;99.90;;;;;;5014630;28;20395;-67
2022/08/20 03:11:16;;;;;;;12.45;6.05;;;17.90;99.90;;;;;;5014440;28;20034;-67
2022/08/20 03:13:42;;;;;;;12.85;5.82;;;17.80;99.90;;;;;;5032208;28;20487;-66
2022/08/20 03:16:09;;;;;;;12.88;6.75;;;17.90;99.90;;;;;;5032302;28;20053;-67
2022/08/20 03:18:38;;;;;;;12.65;6.60;;;17.80;99.90;;;;;;5032074;28;20033;-67
2022/08/20 03:21:06;;;;;;;13.13;6.68;;;17.70;99.90;;;;;;5031832;28;20030;-66
2022/08/20 03:23:32;;;;;;;12.05;7.05;;;18.30;99.90;;;;;;5032073;28;20041;-66
2022/08/20 03:25:58;;;;;;;14.05;6.90;;;17.90;99.90;;;;;;5031891;28;20526;-67
2022/08/20 03:28:24;;;;;;;11.43;6.10;;;17.60;99.90;;;;;;5032329;28;20041;-66
2022/08/20 03:30:50;;;;;;;12.18;6.05;;;17.80;99.90;;;;;;5032118;28;20466;-67
2022/08/20 03:33:18;;;;;;;14.10;6.25;;;17.60;99.90;;;;;;5014288;28;20034;-66
2022/08/20 03:35:45;;;;;;;12.98;6.78;;;17.60;99.90;;;;;;5014457;28;20446;-66
2022/08/20 03:38:12;;;;;;;14.27;7.47;;;19.30;99.90;;;;;;5014387;28;20038;-67
2022/08/20 03:40:38;;;;;;;11.07;6.15;;;17.70;99.90;;;;;;5031819;28;20044;-67
2022/08/20 03:43:07;;;;;;;16.85;6.95;;;17.60;99.90;;;;;;5014237;28;20041;-66
2022/08/20 03:45:34;;;;;;;13.48;6.30;;;17.80;99.90;;;;;;5031772;28;20050;-66
2022/08/20 03:48:01;;;;;;;13.68;6.95;;;17.80;99.90;;;;;;5031624;28;20069;-66
2022/08/20 03:50:29;;;;;;;14.02;6.75;;;17.60;99.90;;;;;;5031756;28;20554;-66
2022/08/20 03:52:56;;;;;;;12.52;6.63;;;17.60;99.90;;;;;;5014110;28;20522;-67
2022/08/20 03:55:23;;;;;;;14.23;7.43;;;17.80;99.90;;;;;;5031777;28;20057;-66
2022/08/20 03:57:53;;;;;;;13.27;6.07;;;17.80;99.90;;;;;;5014393;28;20067;-66
2022/08/20 04:00:23;;;;;;;11.32;6.57;;;17.70;99.90;;;;;;5031467;28;20033;-66
2022/08/20 04:02:49;;;;;;;13.35;6.65;;;17.50;99.90;;;;;;5014163;28;20041;-67
2022/08/20 04:05:15;;;;;;;12.48;6.55;;;17.70;99.90;;;;;;5013790;28;20508;-67
2022/08/20 04:07:40;;;;;;;8.88;5.82;;;17.70;99.90;;;;;;5013799;28;20041;-66
2022/08/20 04:10:09;;;;;;;11.88;6.00;;;17.60;99.90;;;;;;5031554;28;20466;-67
2022/08/20 04:12:39;;;;;;;13.70;6.57;;;17.60;99.90;;;;;;5013847;28;20033;-66
2022/08/20 04:15:14;;;;;;;12.52;5.40;;;17.60;99.90;;;;;;5034652;28;20045;-66
2022/08/20 04:17:43;;;;;;;;;;;17.60;99.90;;;;;;5017807;28;20507;-66
2022/08/20 04:20:12;;;;;;;9.15;5.45;;;17.40;99.90;;;;;;5035261;28;19948;-66
2022/08/20 04:22:38;;;;;;;16.42;6.65;;;17.50;99.90;;;;;;5034923;28;20041;-66
2022/08/20 04:25:07;;;;;;;9.18;5.88;;;18.80;99.90;;;;;;5017594;28;20055;-66
2022/08/20 04:27:36;;;;;;;15.65;6.35;;;17.40;99.90;;;;;;5017037;28;20496;-67
2022/08/20 04:30:03;;;;;;;11.38;6.35;;;17.50;99.90;;;;;;5017421;28;20037;-67
2022/08/20 04:32:29;;;;;;;9.82;5.30;;;17.40;99.90;;;;;;5017250;28;20050;-66
2022/08/20 04:34:54;;;;;;;13.77;5.68;;;17.30;99.90;;;;;;5017424;28;20033;-66
2022/08/20 04:37:21;;;;;;;8.90;5.78;;;17.30;99.90;;;;;;5034879;28;20049;-66
2022/08/20 04:40:52;;;;;;;9.68;4.75;;;17.40;99.90;;;;;;5017241;28;20037;-66
2022/08/20 04:42:37;;;;;;;9.77;5.07;;;17.30;99.90;;;;;;5034453;28;20266;-66
2022/08/20 04:45:05;;;;;;;7.82;5.13;;;17.20;99.90;;;;;;5034682;28;20037;-66
2022/08/20 04:47:32;;;;;;;13.95;5.85;;;17.20;99.90;;;;;;5034480;28;20165;-66
2022/08/20 04:49:59;;;;;;;14.82;6.85;;;17.00;99.90;;;;;;5034837;28;20040;-66
2022/08/20 04:52:26;;;;;;;10.73;6.00;;;17.20;99.90;;;;;;5016939;28;20076;-66
2022/08/20 04:54:54;;;;;;;13.60;6.00;;;17.00;99.90;;;;;;5034311;28;20045;-66
2022/08/20 04:57:22;;;;;;;8.40;5.72;;;16.90;99.90;;;;;;5034571;28;20064;-66
2022/08/20 04:59:49;;;;;;;12.88;6.20;;;17.20;99.90;;;;;;5034497;28;20119;-66
2022/08/20 05:02:17;;;;;;;9.65;5.40;;;16.70;99.90;;;;;;5034334;28;20033;-66
2022/08/20 05:04:42;;;;;;;11.35;5.30;;;17.00;99.90;;;;;;5034100;28;20065;-66
2022/08/20 05:07:10;;;;;;;9.73;5.90;;;17.00;99.90;;;;;;5016417;28;20041;-65
2022/08/20 05:09:36;;;;;;;18.42;5.32;;;17.20;99.90;;;;;;5034390;28;20041;-65
2022/08/20 05:12:01;;;;;;;10.32;5.63;;;17.10;99.90;;;;;;5016641;28;20045;-67
2022/08/20 05:14:28;;;;;;;12.30;5.03;;;17.00;99.90;;;;;;5016392;28;20038;-67
2022/08/20 05:16:56;;;;;;;9.75;5.18;;;16.70;99.90;;;;;;5033942;28;20045;-67
2022/08/20 05:19:22;;;;;;;10.45;4.65;;;17.10;99.90;;;;;;5016510;28;20503;-66
2022/08/20 05:21:48;;;;;;;12.05;4.80;;;17.10;99.90;;;;;;5033857;28;20041;-67
2022/08/20 05:24:15;;;;;;;10.02;4.65;;;17.10;99.90;;;;;;5015900;28;20530;-67
2022/08/20 05:26:40;;;;;;;11.77;3.63;;;16.90;99.90;;;;;;5034060;28;20403;-67
2022/08/20 05:29:06;;;;;;;10.55;4.60;;;16.90;99.90;;;;;;5034005;28;20033;-67
2022/08/20 05:31:33;;;;;;;9.02;4.15;;;17.10;99.90;;;;;;5016040;28;20395;-67
2022/08/20 05:34:08;;;;;;;12.27;3.72;;;16.90;99.90;;;;;;5033761;28;20048;-67
2022/08/20 05:36:33;;;;;;;10.68;4.85;;;16.90;99.90;;;;;;5015763;28;20056;-66
2022/08/20 05:38:59;;;;;;;8.43;4.28;;;16.80;99.90;;;;;;5033887;28;20042;-67
2022/08/20 05:41:27;;;;;;;12.40;4.25;;;17.00;99.90;;;;;;5015397;28;20050;-67
2022/08/20 05:43:52;;;;;;;9.70;4.38;;;17.00;99.90;;;;;;5033440;28;20111;-67
2022/08/20 05:46:18;;;;;;;9.57;4.40;;;17.00;99.90;;;;;;5013343;28;20491;-68
2022/08/20 05:48:43;;;;;;;9.07;3.85;;;16.80;99.90;;;;;;5015871;28;20504;-67
2022/08/20 05:51:09;;;;;;;7.82;4.30;;;17.10;99.90;;;;;;5014929;28;20387;-67
2022/08/20 05:53:36;;;;;;;15.45;4.45;;;17.40;99.90;;;;;;5000142;28;20133;-67
2022/08/20 05:56:02;;;;;;;14.23;4.07;;;17.00;99.90;;;;;;5015647;28;20128;-67
2022/08/20 05:58:28;;;;;;;7.60;4.38;;;17.30;99.90;;;;;;5016117;28;20043;-67
2022/08/20 06:00:54;;;;;;;15.82;4.65;;;17.50;99.90;;;;;;4999932;28;20058;-67
2022/08/20 06:06:07;;;;;;;11.32;3.45;;;17.70;99.90;;;;;;4998195;28;20053;-66
2022/08/20 06:08:33;;;;;;;9.98;3.40;;;17.80;99.90;;;;;;5015903;28;20116;-66
2022/08/20 06:10:59;;;;;;;12.18;3.38;;;17.90;99.90;;;;;;5018051;28;20498;-67
2022/08/20 06:13:25;;;;;;;13.50;5.03;;;18.60;99.90;;;;;;4998698;28;20045;-66
2022/08/20 06:15:50;;;;;;;8.38;2.90;;;19.10;99.90;;;;;;4999099;28;20037;-65
2022/08/20 06:18:16;;;;;;;9.07;2.45;;;19.80;99.90;;;;;;5013797;28;20084;-65
2022/08/20 06:20:42;;;;;;;9.73;2.65;;;20.50;99.90;;;;;;4998264;28;20049;-65
2022/08/20 06:23:08;;;;;;;10.23;3.45;;;21.10;99.90;;;;;;5015333;28;20084;-66
2022/08/20 06:25:34;;;;;;;7.72;2.05;;;21.10;99.90;;;;;;5015867;28;20444;-66
2022/08/20 06:28:00;;;;;;;5.57;1.63;;;21.20;99.90;;;;;;5026249;28;20091;-67
2022/08/20 06:30:26;;;;;;;6.45;1.42;;;21.30;99.90;;;;;;5015656;28;20041;-65
2022/08/20 06:32:51;;;;;;;7.05;1.77;;;21.80;99.90;;;;;;5015837;28;20049;-67
2022/08/20 06:35:17;;;;;;;9.02;2.05;;;22.50;99.90;;;;;;5033299;28;20036;-66
2022/08/20 06:37:43;;;;;;;6.13;2.08;;;23.00;99.90;;;;;;5014449;28;20037;-67
2022/08/20 06:40:15;;;;;;;5.38;1.48;;;23.80;99.90;;;;;;5015451;28;20124;-66
2022/08/20 06:42:42;;;;;;;5.57;1.30;;;24.40;99.90;;;;;;5006608;28;20381;-67
2022/08/20 06:45:14;;;;;;;9.18;1.85;;;24.80;99.90;;;;;;5012083;28;20037;-67
2022/08/20 06:47:42;;;;;;;8.80;1.17;;;25.30;99.90;;;;;;5010953;28;20049;-67
2022/08/20 06:50:17;;;;;;;8.57;1.27;;;26.30;99.90;;;;;;5013070;28;20038;-67
2022/08/20 06:52:44;;;;;;;15.05;1.50;;;26.30;99.90;;;;;;5024499;28;20040;-65
2022/08/20 06:55:11;;;;;;;7.57;1.75;;;26.30;99.90;;;;;;5012239;28;20495;-66
2022/08/20 06:57:37;;;;;;;5.60;0.85;;;25.90;99.90;;;;;;5030956;28;20045;-66
2022/08/20 07:00:13;;;;;;;5.13;1.00;;;25.70;99.90;;;;;;5031144;28;20077;-67
2022/08/20 07:02:38;;;;;;;6.10;0.93;;;26.10;99.90;;;;;;5012393;28;20045;-66
2022/08/20 07:05:05;;;;;;;5.40;0.90;;;27.80;99.90;;;;;;5013108;28;20065;-66
2022/08/20 07:07:30;;;;;;;7.07;1.13;;;27.10;99.90;;;;;;5031015;28;20034;-67
2022/08/20 07:10:07;;;;;;;4.38;0.90;;;27.40;99.90;;;;;;5013180;28;20087;-67
2022/08/20 07:12:35;;;;;;;4.22;0.90;;;27.20;99.90;;;;;;5013156;28;20037;-67
2022/08/20 07:15:04;;;;;;;3.35;0.60;;;27.50;99.90;;;;;;5030832;28;20049;-67
2022/08/20 07:17:30;;;;;;;5.93;1.08;;;25.60;99.90;;;;;;5025132;28;20495;-67
2022/08/20 07:19:55;;;;;;;4.60;0.60;;;24.70;99.90;;;;;;5030890;28;20033;-66
2022/08/20 07:22:21;;;;;;;6.20;0.68;;;24.30;99.90;;;;;;5030077;28;20072;-66
2022/08/20 07:24:47;;;;;;;5.97;1.00;;;23.80;99.90;;;;;;5009850;28;20049;-66
2022/08/20 07:27:13;;;;;;;6.50;0.70;;;23.70;99.90;;;;;;5030663;28;20395;-66
2022/08/20 07:32:35;;;;;;;4.97;0.90;;;22.40;99.90;;;;;;5011916;28;20881;-66
2022/08/20 07:35:04;;;;;;;6.65;1.20;;;22.20;99.90;;;;;;5010844;28;20061;-66
2022/08/20 07:37:30;;;;;;;8.75;1.60;;;22.10;99.90;;;;;;5029939;28;20033;-65
2022/08/20 07:39:56;;;;;;;10.23;1.05;;;21.90;99.90;;;;;;5030348;28;20052;-66
2022/08/20 07:42:22;;;;;;;6.28;0.60;;;21.60;99.90;;;;;;5028937;28;20037;-66
2022/08/20 07:44:48;;;;;;;3.72;0.88;;;21.80;99.90;;;;;;5030005;28;20051;-66
2022/08/20 07:47:17;;;;;;;4.85;0.85;;;21.40;99.90;;;;;;5012395;28;20034;-64
2022/08/20 07:49:43;;;;;;;8.55;1.48;;;21.60;99.90;;;;;;5014945;28;20045;-65
2022/08/20 07:52:08;;;;;;;4.45;0.80;;;21.30;99.90;;;;;;5016482;28;20044;-65
2022/08/20 07:54:36;;;;;;;4.13;0.70;;;21.40;99.90;;;;;;5034523;28;20037;-65
2022/08/20 07:57:03;;;;;;;5.50;0.95;;;21.20;99.90;;;;;;5024747;28;20049;-66
2022/08/20 07:59:30;;;;;;;6.97;0.90;;;21.10;99.90;;;;;;5034079;28;20053;-66
2022/08/20 08:01:55;;;;;;;7.90;0.73;;;21.00;99.90;;;;;;5033790;28;20050;-66
2022/08/20 08:04:23;;;;;;;6.63;0.77;;;21.10;99.90;;;;;;5016263;28;20053;-67
2022/08/20 08:06:49;;;;;;;4.25;0.65;;;21.00;99.90;;;;;;5017102;28;20415;-67
2022/08/20 08:09:15;;;;;;;5.97;0.80;;;21.30;99.90;;;;;;5016755;28;20044;-68
2022/08/20 08:11:49;;;;;;;7.72;1.73;;;20.80;99.90;;;;;;5034218;28;20033;-67
2022/08/20 08:14:22;;;;;;;6.77;0.80;;;22.10;99.90;;;;;;5031705;28;20046;-65
2022/08/20 08:16:48;;;;;;;5.15;0.63;;;20.90;99.90;;;;;;5034093;28;20454;-68
2022/08/20 08:19:15;;;;;;;8.48;1.05;;;20.80;99.90;;;;;;5033584;28;20518;-68
2022/08/20 08:21:43;;;;;;;2.80;0.73;;;20.90;99.90;;;;;;5031595;28;20076;-67
2022/08/20 08:24:10;;;;;;;4.50;0.80;;;21.00;99.90;;;;;;5032806;28;20443;-65
2022/08/20 08:26:35;;;;;;;5.47;0.50;;;21.20;99.90;;;;;;5016197;28;20120;-66
2022/08/20 08:29:01;;;;;;;8.70;1.05;;;20.80;99.90;;;;;;5033342;28;20113;-66
2022/08/20 08:31:27;;;;;;;7.50;1.15;;;20.90;99.90;;;;;;5015426;28;20041;-65
2022/08/20 08:33:53;;;;;;;3.80;0.73;;;20.90;99.90;;;;;;5015069;28;20038;-66
2022/08/20 08:36:18;;;;;;;7.68;1.27;;;21.10;99.90;;;;;;5033194;28;20087;-65
2022/08/20 08:38:44;;;;;;;3.60;0.80;;;21.00;99.90;;;;;;5033922;28;20052;-66
2022/08/20 08:41:18;;;;;;;4.82;0.75;;;21.20;99.90;;;;;;5032974;28;20503;-66
2022/08/20 08:43:47;;;;;;;4.95;0.80;;;21.20;99.90;;;;;;5015157;28;20048;-66
2022/08/20 08:46:16;;;;;;;6.45;1.27;;;20.90;99.90;;;;;;5031262;28;20048;-68
2022/08/20 08:48:46;;;;;;;4.13;0.98;;;21.20;99.90;;;;;;5033380;28;20049;-65
2022/08/20 08:51:22;;;;;;;4.25;0.70;;;21.20;99.90;;;;;;5033248;28;20384;-65
2022/08/20 08:53:53;;;;;;;3.72;0.70;;;21.10;99.90;;;;;;5033006;28;20538;-66
2022/08/20 08:56:23;;;;;;;3.63;0.75;;;21.30;99.90;;;;;;5033133;28;20034;-65
2022/08/20 08:58:49;;;;;;;7.68;1.17;;;21.30;99.90;;;;;;5015422;28;20044;-66
2022/08/20 09:01:19;;;;;;;6.15;0.75;;;21.40;99.90;;;;;;5033205;28;20037;-66
2022/08/20 09:03:48;;;;;;;3.53;0.85;;;21.60;99.90;;;;;;5032696;28;20104;-67
2022/08/20 09:06:20;;;;;;;5.35;0.70;;;21.30;99.90;;;;;;5015382;28;20128;-65
2022/08/20 09:08:53;;;;;;;3.60;0.85;;;21.40;99.90;;;;;;5015379;28;20099;-65
2022/08/20 09:11:21;;;;;;;5.47;0.70;;;21.30;99.90;;;;;;5015409;28;20072;-66
2022/08/20 09:13:47;;;;;;;4.50;0.73;;;21.30;99.90;;;;;;5015189;28;20041;-66
2022/08/20 09:16:13;;;;;;;5.32;0.98;;;21.50;99.90;;;;;;5015449;28;20493;-66
2022/08/20 09:18:39;;;;;;;4.90;0.90;;;21.70;99.90;;;;;;5007232;28;20045;-66
2022/08/20 09:21:06;;;;;;;3.17;0.70;;;21.50;99.90;;;;;;5032778;28;20044;-66
2022/08/20 09:23:33;;;;;;;2.50;0.80;;;21.80;99.90;;;;;;5032235;28;20044;-66
2022/08/20 09:25:58;;;;;;;6.68;0.77;;;21.90;99.90;;;;;;5032647;28;20038;-66
2022/08/20 09:28:24;;;;;;;4.57;0.70;;;21.50;99.90;;;;;;5028237;28;20052;-66
2022/08/20 09:30:50;;;;;;;4.75;0.40;;;21.80;99.90;;;;;;5023445;28;20041;-66
2022/08/20 09:33:15;;;;;;;4.18;0.70;;;22.10;99.90;;;;;;5009092;28;20042;-68
2022/08/20 09:35:43;;;;;;;5.65;0.45;;;22.10;99.90;;;;;;5024429;28;20042;-67
2022/08/20 09:38:09;;;;;;;7.65;0.90;;;22.20;99.90;;;;;;5024625;28;20410;-67
2022/08/20 09:40:34;;;;;;;7.63;1.15;;;22.20;99.90;;;;;;5028208;28;20045;-67
2022/08/20 09:43:00;;;;;;;7.78;0.70;;;22.40;99.90;;;;;;5009513;28;20124;-65
2022/08/20 09:45:25;;;;;;;6.70;0.90;;;22.50;99.90;;;;;;5032939;28;20037;-67
2022/08/20 09:47:51;;;;;;;5.20;0.80;;;23.00;99.90;;;;;;5013179;28;20045;-67
2022/08/20 09:50:17;;;;;;;5.93;0.90;;;23.50;99.90;;;;;;5012749;28;20042;-65
2022/08/20 09:52:46;;;;;;;5.40;0.68;;;22.70;99.90;;;;;;5024028;28;20029;-65
2022/08/20 09:55:31;;;;;;;6.25;1.00;;;23.00;99.90;;;;;;5014212;28;20067;-65
2022/08/20 09:57:57;;;;;;;5.77;0.70;;;22.60;99.90;;;;;;5006060;28;20425;-65
2022/08/20 10:00:23;;;;;;;4.53;0.60;;;22.80;99.90;;;;;;5013376;28;20288;-66
2022/08/20 10:02:49;;;;;;;8.60;0.93;;;22.60;99.90;;;;;;5031156;28;20044;-66
2022/08/20 10:05:14;;;;;;;2.20;0.43;;;22.70;99.90;;;;;;5022763;28;20052;-64
2022/08/20 10:07:42;;;;;;;4.40;0.63;;;22.80;99.90;;;;;;5000092;28;20434;-64
2022/08/20 10:10:11;;;;;;;5.45;0.85;;;22.80;99.90;;;;;;5023150;28;20056;-65
2022/08/20 10:12:36;;;;;;;4.15;0.77;;;22.80;99.90;;;;;;5012828;28;20075;-64
2022/08/20 10:15:03;;;;;;;9.48;1.42;;;23.10;99.90;;;;;;5030436;28;20084;-65
2022/08/20 10:17:28;;;;;;;4.85;0.98;;;22.80;99.90;;;;;;5030861;28;20049;-65
2022/08/20 10:19:54;;;;;;;3.65;0.85;;;23.30;99.90;;;;;;5030044;28;20045;-64
2022/08/20 10:22:20;;;;;;;6.05;0.95;;;23.10;99.90;;;;;;5013775;28;20137;-66
2022/08/20 10:24:45;;;;;;;4.80;0.63;;;23.10;99.90;;;;;;5025491;28;20400;-64
2022/08/20 10:27:11;;;;;;;5.45;0.73;;;23.40;99.90;;;;;;5017708;28;20102;-64
2022/08/20 10:29:36;;;;;;;5.82;0.57;;;23.20;99.90;;;;;;5033601;28;20075;-62
2022/08/20 10:32:14;;;;;;;4.60;0.65;;;23.00;99.90;;;;;;5013680;28;20041;-63
2022/08/20 10:34:42;;;;;;;6.65;0.95;;;23.00;99.90;;;;;;5030882;28;20044;-64
2022/08/20 10:37:12;;;;;;;7.03;1.73;;;22.90;99.90;;;;;;5031764;28;20208;-62
2022/08/20 10:39:38;;;;;;;5.57;0.88;;;22.70;99.90;;;;;;5013383;28;20048;-63
2022/08/20 10:42:04;;;;;;;6.72;0.73;;;22.80;99.90;;;;;;5030759;28;20037;-63
2022/08/20 10:44:29;;;;;;;7.90;1.05;;;22.70;99.90;;;;;;5012863;28;20049;-63
2022/08/20 10:46:55;;;;;;;4.18;0.80;;;22.90;99.90;;;;;;5030909;28;20392;-62
2022/08/20 10:49:20;;;;;;;5.38;2.17;;;23.30;99.90;;;;;;5030905;28;20404;-62
2022/08/20 10:51:46;;;;;;;6.18;1.13;;;23.40;99.90;;;;;;5030776;28;20065;-63
2022/08/20 10:54:11;;;;;;;4.38;0.68;;;23.20;99.90;;;;;;5013152;28;20053;-63
2022/08/20 10:56:37;;;;;;;4.22;0.85;;;23.30;99.90;;;;;;5011594;28;20049;-63
2022/08/20 10:59:02;;;;;;;6.30;0.90;;;24.50;99.90;;;;;;5011389;28;20033;-62
2022/08/20 11:01:28;;;;;;;5.63;0.50;;;23.30;99.90;;;;;;5013149;28;20136;-65
2022/08/20 11:03:53;;;;;;;8.73;1.05;;;23.30;99.90;;;;;;5012294;28;20061;-66
2022/08/20 11:06:19;;;;;;;8.20;0.80;;;23.30;99.90;;;;;;5030899;28;20045;-66
2022/08/20 11:08:45;;;;;;;5.57;0.85;;;23.20;99.90;;;;;;5031046;28;20042;-65
2022/08/20 11:11:10;;;;;;;3.55;0.65;;;23.40;99.90;;;;;;5011966;28;20491;-64
2022/08/20 11:13:36;;;;;;;6.78;0.95;;;23.30;99.90;;;;;;5021530;28;20449;-65
2022/08/20 11:16:02;;;;;;;7.15;1.25;;;25.40;99.90;;;;;;5038230;28;20041;-64
2022/08/20 11:18:29;;;;;;;7.97;0.98;;;23.30;99.90;;;;;;4998703;28;20045;-64
2022/08/20 11:20:55;;;;;;;4.53;0.90;;;23.40;99.90;;;;;;5029825;28;20045;-65
2022/08/20 11:23:21;;;;;;;6.85;1.00;;;23.20;99.90;;;;;;5031848;28;20083;-65
2022/08/20 11:25:47;;;;;;;4.82;0.55;;;23.40;99.90;;;;;;5033770;28;20068;-64
2022/08/20 11:28:13;;;;;;;5.88;0.95;;;23.30;99.90;;;;;;5033656;28;20033;-65
2022/08/20 11:30:39;;;;;;;3.70;0.75;;;23.30;99.90;;;;;;5015777;28;20089;-65
2022/08/20 11:33:05;;;;;;;9.52;1.10;;;23.60;99.90;;;;;;5032985;28;20080;-65
2022/08/20 11:35:33;;;;;;;5.68;0.68;;;23.60;99.90;;;;;;5034392;28;20068;-65
2022/08/20 11:37:58;;;;;;;7.75;0.68;;;23.90;99.90;;;;;;5015550;28;20120;-65
2022/08/20 11:40:26;;;;;;;3.75;0.95;;;23.60;99.90;;;;;;5009818;28;20168;-64
2022/08/20 11:42:52;;;;;;;6.47;1.92;;;23.80;99.90;;;;;;5014034;28;20131;-64
2022/08/20 11:45:18;;;;;;;7.40;1.08;;;23.50;99.90;;;;;;5011453;28;20113;-64
2022/08/20 11:47:43;;;;;;;4.82;0.80;;;23.70;99.90;;;;;;5015721;28;20447;-64
2022/08/20 11:50:13;;;;;;;5.45;0.80;;;23.70;99.90;;;;;;4998175;28;20121;-64
2022/08/20 11:52:39;;;;;;;6.15;0.65;;;23.80;99.90;;;;;;5008686;28;20386;-64
2022/08/20 11:55:07;;;;;;;5.72;0.68;;;23.60;99.90;;;;;;5018959;28;20459;-65
2022/08/20 11:57:35;;;;;;;5.53;0.90;;;23.70;99.90;;;;;;4998819;28;20053;-65
2022/08/20 12:00:06;;;;;;;6.18;0.90;;;25.30;99.90;;;;;;5006307;28;20498;-64
2022/08/20 12:02:31;;;;;;;7.47;0.80;;;23.50;99.90;;;;;;5014871;28;20076;-65
2022/08/20 12:04:57;;;;;;;7.65;1.25;;;23.30;99.90;;;;;;5033862;28;20483;-65
2022/08/20 12:07:24;;;;;;;4.55;0.88;;;25.70;99.90;;;;;;5016747;28;20099;-65
2022/08/20 12:09:50;;;;;;;5.40;1.02;;;23.40;99.90;;;;;;5034705;28;20052;-64
2022/08/20 12:12:18;;;;;;;6.30;1.17;;;23.40;99.90;;;;;;5015249;28;20519;-65
2022/08/20 12:14:43;;;;;;;5.57;0.77;;;23.30;99.90;;;;;;5012832;28;20075;-64
2022/08/20 12:17:10;;;;;;;4.00;0.70;;;23.50;99.90;;;;;;4999317;28;20064;-65
2022/08/20 12:19:40;;;;;;;4.38;0.70;;;23.70;99.90;;;;;;5013878;28;20128;-64
2022/08/20 12:22:07;;;;;;;7.63;1.10;;;23.60;99.90;;;;;;5012591;28;20400;-65
2022/08/20 12:24:33;;;;;;;5.68;1.20;;;23.50;99.90;;;;;;5032642;28;20080;-64
2022/08/20 12:27:09;;;;;;;6.13;0.70;;;23.80;99.90;;;;;;5015004;28;20041;-65
2022/08/20 12:29:37;;;;;;;4.75;0.60;;;23.70;99.90;;;;;;5030149;28;20030;-65
2022/08/20 12:32:05;;;;;;;10.70;0.85;;;23.80;99.90;;;;;;5014550;28;20037;-65
2022/08/20 12:34:32;;;;;;;7.30;1.20;;;23.80;99.90;;;;;;5012294;28;20113;-65
2022/08/20 12:37:09;;;;;;;6.80;0.98;;;23.90;99.90;;;;;;5032855;28;20072;-65
2022/08/20 12:39:41;;;;;;;7.50;1.00;;;23.80;99.90;;;;;;5015266;28;20044;-65
2022/08/20 12:42:07;;;;;;;6.63;1.20;;;23.80;99.90;;;;;;5014547;28;20049;-64
2022/08/20 12:44:33;;;;;;;7.70;1.38;;;23.80;99.90;;;;;;5014754;28;20120;-65
2022/08/20 12:47:04;;;;;;;4.60;1.05;;;24.00;99.90;;;;;;5015077;28;20120;-65
2022/08/20 12:49:30;;;;;;;7.70;0.73;;;23.90;99.90;;;;;;5017856;28;20044;-65
2022/08/20 12:51:56;;;;;;;5.32;1.50;;;23.80;99.90;;;;;;5032232;28;20372;-65